x

New Dungeness - 17 Nm Ne Of Port Angeles, Wa (46088) Wave Buoy

4:20 - Thu 30th Jun 2016 All times are PDT. -7 hours from GMT.

  • Sig Wave height 3.0ft
  • Swell Direction
  • Peak Period 5s
  • Average Period 4s
  • Wind
    25mph, 31mph gusts
  • Sea Temp 52°f
  • Aire Temp 53°f
  • Sea Pressure 1020.8mb
  • New Dungeness - 17 Nm Ne Of Port Angeles, Wa
  • New Dungeness - 17 Nm Ne Of Port Angeles, Wa

More Historic Weather Station data

Upgrade to MSW Pro to gain access to the past 30 days of data for over 8000 Wavebouys and Weather Stations around the globe.

Join Pro

Comparision Forecast

View Surf forecast
   
jue 06/30 4:20 3ft 5s 4s 25 31 mph 1020.8mb 52f 53f
3:50 3.5ft 5s 4s 25 31 mph 1020.4mb 51f 53f
3:20 3.5ft 5s 4s 27 34 mph 1020.2mb 51f 53f
2:50 4ft 5s 4s 27 31 mph 1020.2mb 51f 54f
2:20 4ft 5s 4s 27 31 mph 1019.9mb 51f 54f
1:50 4.5ft 5s 4s 31 36 mph 1019.5mb 51f 54f
1:20 4.5ft 5s 4s 29 36 mph 1019.8mb 51f 54f
12:50 4.5ft 5s 4s 29 34 mph 1019.6mb 51f 54f
12:20 4.5ft 5s 4s 31 38 mph 1019.5mb 51f 54f
mié 06/29 11:50 4.5ft 5s 4s 29 34 mph 1019.5mb 51f 54f
11:20 4.5ft 5s 4s 29 38 mph 1019.7mb 52f 55f
10:50 4.5ft 5s 4s 31 40 mph 1019.3mb 52f 55f
10:20 5ft 5s 4s 31 40 mph 1019.3mb 52f 55f
9:50 5.5ft 6s 5s 34 40 mph 1019.1mb 52f 55f
9:20 6ft 6s 5s 34 40 mph 1018.8mb 52f 55f
8:50 6ft 6s 5s 36 43 mph 1018.6mb 52f 55f
8:20 6ft 6s 5s 36 45 mph 1018.2mb 52f 56f
7:50 5.5ft 5s 5s 34 40 mph 1018.2mb 53f 56f
7:20 5.5ft 5s 5s 31 36 mph 1018.2mb 52f 56f
6:50 5ft 6s 4s 29 34 mph 1018.3mb 51f 57f
6:20 5ft 5s 4s 27 34 mph 1018.5mb 52f 57f
5:50 4.5ft 5s 4s 25 31 mph 1018.7mb 52f 56f
5:20 3.5ft 5s 4s 27 31 mph 1018.7mb 52f 56f
4:50 3.5ft 5s 4s 22 27 mph 1019.2mb 52f 57f
4:20 2ft 4s 3s 18 22 mph 1019.7mb 52f 57f
3:50 2ft 4s 3s 18 22 mph 1020mb 52f 56f
3:20 2ft 4s 3s 18 22 mph 1020.2mb 52f 55f
2:50 2ft 4s 3s 18 20 mph 1020.5mb 52f 55f
2:20 2.5ft 4s 3s 16 18 mph 1020.8mb 52f 55f
1:50 2ft 4s 3s 18 20 mph 1020.8mb 52f 55f
1:20 2ft 3s 3s 18 20 mph 1021.2mb 52f 54f
12:50 1.6ft 3s 3s 18 20 mph 1021.4mb 52f 54f
12:20 2ft 3s 3s 18 20 mph 1021.6mb 52f 54f
11:50 2ft 4s 4s 16 20 mph 1021.7mb 53f 54f
11:20 2.5ft 4s 4s 16 18 mph 1021.8mb 53f 54f
10:50 2.5ft 4s 4s 16 20 mph 1021.8mb 52f 54f
10:20 2.5ft 5s 4s 13 16 mph 1021.8mb 52f 54f
9:50 2.5ft 5s 4s 16 25 mph 1021.7mb 52f 55f
9:20 2.5ft 5s 4s 16 18 mph 1021.7mb 52f 54f
8:50 3ft 5s 5s 16 18 mph 1021.7mb 52f 54f
8:20 2.5ft 5s 5s 16 18 mph 1021.6mb 52f 54f
7:50 2.5ft 6s 5s 13 16 mph 1021.5mb 51f 54f
7:20 2ft 5s 4s 13 16 mph 1021.4mb 51f 53f
6:50 2ft 5s 4s 11 13 mph 1021.4mb 51f 54f
6:20 1.6ft 5s 4s 11 13 mph 1021.2mb 51f 53f
5:50 1.6ft 6s 4s 13 18 mph 1020.9mb 51f 53f
5:20 1.6ft 5s 4s 13 16 mph 1020.8mb 51f 53f
4:50 2ft 6s 4s 13 20 mph 1020.6mb 51f 54f
4:20 2.5ft 6s 5s 16 20 mph 1020.2mb 51f 54f
3:50 2.5ft 5s 4s 16 20 mph 1020.2mb 51f 54f
3:20 2.5ft 5s 4s 18 22 mph 1020.2mb 51f 54f
2:50 3ft 5s 4s 20 25 mph 1019.7mb 51f 54f
2:20 2.5ft 5s 4s 20 22 mph 1019.6mb 51f 54f
1:20 3ft 5s 4s 25 29 mph 1019.2mb 52f 54f
12:50 3ft 4s 4s 25 29 mph 1019.2mb 51f 54f
12:20 3ft 4s 4s 20 25 mph 1019.3mb 51f 54f
mar 06/28 11:50 3ft 4s 4s 22 25 mph 1019mb 51f 55f
11:20 3ft 4s 4s 20 22 mph 1019mb 51f 55f
10:50 3ft 4s 4s 20 25 mph 1018.8mb 52f 56f
10:20 2.5ft 4s 4s 20 22 mph 1018.7mb 52f 56f
9:50 3.5ft 5s 4s 16 18 mph 1018.7mb 52f 56f
9:20 3.5ft 5s 4s 16 18 mph 1018.5mb 52f 56f
8:50 3ft 5s 4s 16 20 mph 1018.4mb 52f 55f
8:20 3ft 5s 4s 18 20 mph 1018.3mb 52f 55f
7:50 3ft 4s 4s 18 22 mph 1018.3mb 52f 55f
7:20 3ft 4s 4s 20 25 mph 1018.3mb 52f 55f
6:50 2.5ft 4s 4s 18 22 mph 1018.4mb 52f 55f
6:20 2ft 4s 4s 18 20 mph 1018.7mb 52f 54f
5:20 2ft 4s 3s 18 20 mph 1019.3mb 52f 55f
4:50 2ft 4s 3s 16 18 mph 1019.7mb 53f 55f
4:20 1.6ft 4s 3s 16 18 mph 1020.1mb 52f 55f
3:50 1.3ft 4s 3s 16 18 mph 1020.3mb 52f 55f
3:20 1.3ft 4s 4s 13 18 mph 1020.7mb 53f 55f
2:50 1ft 3s 3s 11 13 mph 1020.9mb 52f 55f
2:20 1.3ft 3s 3s 11 13 mph 1021.2mb 52f 55f
1:50 1.3ft 3s 3s 11 13 mph 1021.4mb 52f 55f
1:20 1.3ft 3s 4s 11 16 mph 1021.6mb 52f 55f
12:50 1.6ft 4s 4s 11
mph
1021.9mb 52f 54f
12:20 1.6ft 4s 4s 11 13 mph 1021.9mb 52f 54f
11:50 2ft 4s 4s 11 13 mph 1022mb 51f 54f
11:20 2.5ft 4s 4s 16 18 mph 1022mb 51f 54f
10:50 2.5ft 4s 4s 20 22 mph 1021.8mb 51f 53f
10:20 2.5ft 4s 4s 18 22 mph 1021.9mb 51f 53f
9:50 2.5ft 4s 4s 18 22 mph 1022.1mb 51f 53f
9:20 3.5ft 7s 4s 18 22 mph 1022.1mb 51f 53f
8:50 3.5ft 5s 4s 18 22 mph 1022.1mb 51f 53f
8:20 3.5ft 5s 5s 18 22 mph 1022mb 51f 53f
7:50 3ft 5s 4s 18 20 mph 1021.9mb 51f 53f
7:20 3ft 5s 4s 18 20 mph 1021.7mb 51f 53f
6:50 3.5ft 5s 5s 18 22 mph 1021.6mb 51f 53f
6:20 2.5ft 5s 4s 20 22 mph 1021.2mb 51f 53f
5:50 2.5ft 5s 4s 18 22 mph 1021.1mb 51f 53f
5:20 2.5ft 5s 4s 18 22 mph 1021mb 51f 53f
4:50 2.5ft 5s 5s 13 20 mph 1020.9mb 51f 53f
4:20 2.5ft 6s 5s 11 16 mph 1020.9mb 51f 53f
3:50 2.5ft 5s 5s 13 16 mph 1020.7mb 51f 53f
3:20 3ft 6s 5s 16 20 mph 1020.5mb 51f 53f
2:50 3ft 5s 4s 18 22 mph 1020.3mb 51f 53f
2:20 3ft 5s 4s 22 27 mph 1019.8mb 51f 53f
1:50 3.5ft 5s 4s 25 29 mph 1019.6mb 51f 53f
1:20 3ft 5s 4s 25 29 mph 1019.6mb 51f 53f
12:50 4ft 5s 4s 27 31 mph 1019.6mb 51f 53f
12:20 3.5ft 5s 4s 29 36 mph 1019.4mb 51f 53f
lun 06/27 11:50 3.5ft 4s 4s 29 34 mph 1019.2mb 51f 54f
11:20 3ft 4s 4s 27 31 mph 1019.3mb 51f 54f
10:50 2.5ft 4s 3s 25 29 mph 1019.3mb 51f 55f
10:20 2.5ft 3s 3s 27 31 mph 1019.2mb 51f 56f
9:50 2.5ft 4s 3s 18 20 mph 1019.2mb 51f 56f
9:20 2.5ft 4s 4s 16 18 mph 1019mb 51f 56f
8:50 2.5ft 4s 4s 16 18 mph 1018.8mb 52f 57f
8:20 3ft 5s 4s 13 18 mph 1018.9mb 51f 55f
7:50 3.5ft 5s 4s 20
mph
1018.6mb 51f 55f
7:20 3.5ft 5s 4s 20 22 mph 1018.5mb 51f 55f
6:50 3ft 5s 4s 20 25 mph 1018.3mb 52f 55f
6:20 3ft 4s 4s 22 25 mph 1018.4mb 52f 55f
5:50 2.5ft 5s 4s 22 25 mph 1018.6mb 52f 55f
5:20 2.5ft 4s 4s 22 25 mph 1018.9mb 52f 55f
4:50 2ft 4s 4s 22 25 mph 1019.2mb 52f 54f
4:20 2.5ft 4s 4s 20 25 mph 1019.5mb 52f 55f
3:50 2ft 4s 4s 18 20 mph 1019.7mb 52f 55f
3:20 1.3ft 4s 3s 13 18 mph 1020mb 53f 55f
2:50 1.3ft 3s 3s 13 16 mph 1020.2mb 52f 55f
2:20 1ft 3s 3s 13 16 mph 1020.5mb 52f 54f
1:50 1ft 3s 3s 13
mph
1020.4mb 53f 54f
1:20 1ft 3s 3s 13 16 mph 1020.6mb 53f 54f
12:50 1ft 3s 3s 11 13 mph 1020.6mb 52f 54f
12:20 1ft 3s 3s 9 11 mph 1020.6mb 52f 54f
11:50 1ft 3s 3s 9 11 mph 1020.5mb 52f 54f
11:20 0.7ft  -  3s 11 13 mph 1020.6mb 52f 54f
10:50 0.7ft  -  3s 9 11 mph 1020.8mb 52f 53f
10:20 0.7ft  -  3s 11
mph
1020.8mb 51f 54f
9:50 1ft 3s 3s 11 13 mph 1020.7mb 52f 53f
9:20 1ft 5s 3s 9 11 mph 1020.7mb 52f 53f
8:50 1ft 5s 3s 7
mph
1020.7mb 51f 52f
8:20 1ft 6s 4s 7
mph
1020.6mb 51f 52f
7:50 1ft 5s 4s 7 9 mph 1020.4mb 51f 52f
7:20 1ft 6s 4s 9
mph
1020.5mb 51f 52f
6:50 1ft 6s 4s 7
mph
1020.3mb 51f 53f
6:20 0.7ft  -  4s 4 7 mph 1020.1mb 51f 53f
5:50 0.7ft  -  4s 7 9 mph 1019.9mb 51f 53f
5:20 0.7ft  -  4s 7
mph
1019.8mb 51f 53f
4:50 0.7ft  -  3s 7 9 mph 1019.5mb 51f 53f
4:20 0.7ft  -  4s 4 7 mph 1019.4mb 51f 53f
3:50 0.7ft  -  4s 7
mph
1019.3mb 51f 53f
3:20 0.3ft  -  4s 7 9 mph 1019.4mb 51f 54f
2:50 0.7ft  -  3s 7
mph
1019.3mb 51f 54f
2:20 0.7ft  -  3s 7
mph
1019.3mb 52f 54f
1:50 0.7ft  -  3s 7 9 mph 1019.2mb 52f 55f
1:20 0.7ft  -  3s 7 9 mph 1019.3mb 52f 56f
12:50 1ft 3s 3s 11 13 mph 1019.2mb 52f 56f
12:20 1ft 3s 3s 13
mph
1019mb 52f 55f
dom 06/26 11:50 1ft 3s 3s 13
mph
1019mb 52f 55f
11:20 1ft 3s 3s 13 16 mph 1019mb 51f 55f
10:50 1.3ft 3s 3s 13 16 mph 1019.2mb 51f 55f
10:20 1ft 3s 3s 16 18 mph 1019.3mb 52f 55f
9:50 1ft 2s 3s 16 18 mph 1019.3mb 52f 54f
9:20 1ft 2s 3s 16 18 mph 1019.3mb 52f 55f
8:50 1ft 2s 3s 16
mph
1019.2mb 52f 55f
8:20 1ft 5s 3s 16
mph
1019.3mb 52f 56f
7:50 0.7ft  -  4s 13 16 mph 1019.4mb 53f 56f
7:20 0.3ft  -  4s 11 13 mph 1019.7mb 54f 57f
6:50 0.7ft  -  4s 9 11 mph 1019.7mb 54f 59f
6:20 0.7ft  -  5s 7 9 mph 1019.7mb 54f 64f
5:50 0.7ft  -  4s 4
mph
1020mb 55f 64f
5:20 0.7ft  -  4s 4
mph
1020.3mb 57f 64f
4:50 0.7ft  -  5s 2
mph
1020.5mb 57f 65f
4:20 0.7ft  -  5s 2
mph
1020.8mb 58f 64f
3:50 0.3ft  -  4s 2 4 mph 1021mb 56f 63f
3:20 0.3ft  -  4s 4
mph
1021.4mb 55f 62f
2:50 0.3ft  -  4s 2 4 mph 1021.7mb 56f 61f
2:20 0.3ft  -  4s 2 4 mph 1021.9mb 55f 61f
1:50 0.3ft  -  3s  -  2 mph 1022.1mb 54f 60f
1:20 0.3ft  -  4s 2
mph
1022.3mb 54f 60f
12:50 0.7ft  -  4s 2 4 mph 1022.8mb 53f 59f